Time;durP1;ratioP1;P1;durP2;ratioP2;P2;SDS_P1;SDS_P2;PMS_P1;PMS_P2;Temp;Humidity;BMP_temperature;BMP_pressure;BME280_temperature;BME280_humidity;BME280_pressure;Samples;Min_cycle;Max_cycle;Signal;HPM_P1;HPM_P2
2021/03/20 00:01:01;;;;;;;8.20;6.60;;;;;;;;;;5022244;28;20185;-54
2021/03/20 00:03:28;;;;;;;9.18;7.15;;;;;;;;;;5021714;28;20273;-53
2021/03/20 00:05:54;;;;;;;8.43;7.43;;;;;;;;;;5022794;28;20168;-54
2021/03/20 00:08:21;;;;;;;9.63;7.13;;;;;;;;;;5021868;28;20512;-54
2021/03/20 00:10:48;;;;;;;6.20;5.70;;;;;;;;;;5023050;28;20601;-54
2021/03/20 00:13:14;;;;;;;7.65;5.88;;;;;;;;;;5022743;28;20169;-52
2021/03/20 00:15:40;;;;;;;5.78;5.20;;;;;;;;;;5023034;28;20198;-53
2021/03/20 00:18:07;;;;;;;5.77;5.13;;;;;;;;;;5023435;28;20200;-52
2021/03/20 00:20:35;;;;;;;6.30;4.65;;;;;;;;;;5023835;28;20427;-53
2021/03/20 00:23:01;;;;;;;10.18;5.30;;;;;;;;;;5023328;28;20181;-54
2021/03/20 00:25:27;;;;;;;4.57;4.18;;;;;;;;;;5022643;28;20176;-53
2021/03/20 00:27:53;;;;;;;5.93;5.05;;;;;;;;;;5023049;28;20175;-53
2021/03/20 00:30:20;;;;;;;6.65;5.03;;;;;;;;;;5023315;28;20253;-52
2021/03/20 00:32:46;;;;;;;7.05;5.22;;;;;;;;;;5023090;28;20211;-53
2021/03/20 00:38:17;;;;;;;5.18;4.65;;;;;;;;;;5021400;28;20267;-52
2021/03/20 00:40:44;;;;;;;9.18;4.38;;;;;;;;;;5023135;28;20260;-55
2021/03/20 00:43:09;;;;;;;4.13;3.83;;;;;;;;;;5022647;28;20172;-54
2021/03/20 00:45:36;;;;;;;4.73;4.17;;;;;;;;;;5022735;28;20232;-54
2021/03/20 00:48:07;;;;;;;4.75;4.28;;;;;;;;;;5021841;28;20470;-52
2021/03/20 00:50:33;;;;;;;6.65;4.95;;;;;;;;;;5023116;28;20188;-53
2021/03/20 00:52:59;;;;;;;3.72;3.45;;;;;;;;;;5021152;28;20736;-54
2021/03/20 00:55:25;;;;;;;4.63;4.00;;;;;;;;;;5022910;28;20165;-53
2021/03/20 00:57:51;;;;;;;4.50;3.60;;;;;;;;;;5021473;28;20502;-53
2021/03/20 01:00:19;;;;;;;4.10;3.80;;;;;;;;;;5022996;28;20419;-55
2021/03/20 01:02:45;;;;;;;4.78;4.10;;;;;;;;;;5022842;28;20414;-53
2021/03/20 01:05:11;;;;;;;4.77;3.90;;;;;;;;;;5023232;28;20170;-53
2021/03/20 01:07:37;;;;;;;3.78;3.47;;;;;;;;;;5022409;28;20925;-53
2021/03/20 01:10:15;;;;;;;4.00;3.55;;;;;;;;;;5022122;28;20187;-53
2021/03/20 01:12:41;;;;;;;4.25;3.90;;;;;;;;;;5022664;28;20656;-53
2021/03/20 01:15:08;;;;;;;3.60;3.30;;;;;;;;;;5021352;28;20226;-53
2021/03/20 01:17:34;;;;;;;3.85;3.45;;;;;;;;;;5022707;28;20416;-53
2021/03/20 01:20:00;;;;;;;4.47;4.07;;;;;;;;;;5023040;28;20172;-54
2021/03/20 01:22:26;;;;;;;5.23;4.20;;;;;;;;;;5023163;28;20176;-53
2021/03/20 01:24:52;;;;;;;3.73;3.33;;;;;;;;;;5023038;28;20482;-53
2021/03/20 01:27:18;;;;;;;9.03;3.90;;;;;;;;;;5022563;28;20911;-53
2021/03/20 01:29:44;;;;;;;3.53;3.15;;;;;;;;;;5022459;28;20785;-54
2021/03/20 01:32:10;;;;;;;4.10;3.80;;;;;;;;;;5022937;28;20196;-54
2021/03/20 01:34:36;;;;;;;3.73;3.43;;;;;;;;;;5022050;28;20203;-53
2021/03/20 01:37:02;;;;;;;4.13;3.73;;;;;;;;;;5022104;28;20403;-52
2021/03/20 01:39:28;;;;;;;3.33;2.93;;;;;;;;;;5021507;28;20423;-55
2021/03/20 01:41:54;;;;;;;3.33;3.00;;;;;;;;;;5021351;28;20904;-53
2021/03/20 01:44:23;;;;;;;4.75;3.72;;;;;;;;;;5023545;28;20404;-53
2021/03/20 01:46:50;;;;;;;3.40;3.10;;;;;;;;;;5022918;28;20582;-53
2021/03/20 01:49:28;;;;;;;3.60;3.30;;;;;;;;;;5022987;28;20210;-54
2021/03/20 01:51:54;;;;;;;3.90;3.20;;;;;;;;;;5023141;28;20211;-53
2021/03/20 01:54:20;;;;;;;4.33;3.43;;;;;;;;;;5022669;28;20256;-53
2021/03/20 01:56:46;;;;;;;3.10;2.70;;;;;;;;;;5022783;28;20440;-54
2021/03/20 01:59:13;;;;;;;3.42;3.13;;;;;;;;;;5022351;28;20490;-54
2021/03/20 02:01:39;;;;;;;3.20;2.72;;;;;;;;;;5022293;28;20247;-53
2021/03/20 02:04:06;;;;;;;3.30;2.80;;;;;;;;;;5022696;28;20172;-54
2021/03/20 02:06:32;;;;;;;3.50;3.20;;;;;;;;;;5022751;28;20438;-52
2021/03/20 02:09:01;;;;;;;3.10;2.90;;;;;;;;;;5021143;28;20215;-53
2021/03/20 02:11:50;;;;;;;5.78;3.30;;;;;;;;;;5023352;28;20227;-53
2021/03/20 02:14:25;;;;;;;3.55;3.25;;;;;;;;;;5014189;28;20184;-53
2021/03/20 02:17:10;;;;;;;3.85;3.55;;;;;;;;;;5024069;28;20172;-53
2021/03/20 02:19:54;;;;;;;3.65;3.30;;;;;;;;;;5023393;28;20330;-53
2021/03/20 02:22:25;;;;;;;4.05;3.38;;;;;;;;;;5023852;28;20164;-52
2021/03/20 02:24:54;;;;;;;3.25;3.03;;;;;;;;;;5023361;28;20179;-54
2021/03/20 02:27:55;;;;;;;2.90;2.70;;;;;;;;;;5023808;28;20654;-53
2021/03/20 02:30:40;;;;;;;3.33;3.03;;;;;;;;;;4961450;29;20208;-53
2021/03/20 02:33:24;;;;;;;3.25;2.80;;;;;;;;;;5019356;28;20215;-55
2021/03/20 02:36:02;;;;;;;3.05;2.80;;;;;;;;;;5023578;28;20258;-52
2021/03/20 02:38:35;;;;;;;4.75;3.20;;;;;;;;;;5022392;28;20186;-53
2021/03/20 02:41:19;;;;;;;5.07;3.22;;;;;;;;;;5022152;28;20208;-52
2021/03/20 02:43:54;;;;;;;3.22;3.03;;;;;;;;;;5023759;28;20172;-55
2021/03/20 02:46:23;;;;;;;3.55;3.25;;;;;;;;;;5022981;28;20236;-53
2021/03/20 02:48:54;;;;;;;4.20;3.60;;;;;;;;;;5022016;28;20187;-53
2021/03/20 02:51:25;;;;;;;8.30;3.35;;;;;;;;;;5023168;28;20246;-54
2021/03/20 02:54:00;;;;;;;5.30;2.72;;;;;;;;;;5023404;28;20164;-54
2021/03/20 02:56:29;;;;;;;5.18;2.97;;;;;;;;;;5024058;28;20191;-53
2021/03/20 02:58:58;;;;;;;4.28;3.85;;;;;;;;;;5023131;28;20164;-53
2021/03/20 03:01:25;;;;;;;4.75;4.03;;;;;;;;;;5022623;28;20191;-54
2021/03/20 03:03:53;;;;;;;3.45;2.97;;;;;;;;;;5022807;28;20240;-53
2021/03/20 03:06:22;;;;;;;4.63;3.40;;;;;;;;;;5021565;28;20271;-53
2021/03/20 03:08:51;;;;;;;4.15;3.30;;;;;;;;;;5021620;28;20187;-53
2021/03/20 03:11:22;;;;;;;3.20;2.90;;;;;;;;;;5023427;28;20200;-54
2021/03/20 03:13:57;;;;;;;3.17;2.88;;;;;;;;;;5023287;28;20195;-54
2021/03/20 03:16:33;;;;;;;4.80;3.45;;;;;;;;;;5022129;28;20175;-52
2021/03/20 03:19:01;;;;;;;4.82;3.08;;;;;;;;;;5022541;28;20666;-52
2021/03/20 03:21:29;;;;;;;3.70;3.40;;;;;;;;;;5023102;28;20192;-53
2021/03/20 03:23:55;;;;;;;3.63;3.33;;;;;;;;;;5022186;28;20179;-53
2021/03/20 03:26:21;;;;;;;7.40;3.05;;;;;;;;;;5023824;28;20255;-52
2021/03/20 03:28:50;;;;;;;4.37;3.43;;;;;;;;;;5022758;28;20179;-52
2021/03/20 03:31:18;;;;;;;4.30;3.88;;;;;;;;;;5022905;28;20466;-52
2021/03/20 03:33:53;;;;;;;4.38;3.10;;;;;;;;;;5022902;28;20171;-54
2021/03/20 03:36:20;;;;;;;4.78;3.65;;;;;;;;;;5023905;28;20183;-53
2021/03/20 03:38:52;;;;;;;8.50;3.80;;;;;;;;;;5023174;28;20731;-52
2021/03/20 03:41:20;;;;;;;5.07;3.75;;;;;;;;;;5022541;28;20219;-52
2021/03/20 03:43:46;;;;;;;6.05;3.80;;;;;;;;;;5023351;28;20176;-54
2021/03/20 03:46:12;;;;;;;8.02;3.75;;;;;;;;;;5022949;28;20776;-53
2021/03/20 03:48:38;;;;;;;7.80;3.67;;;;;;;;;;5022650;28;20187;-53
2021/03/20 03:51:09;;;;;;;3.80;3.50;;;;;;;;;;5022821;28;20188;-53
2021/03/20 03:53:35;;;;;;;3.85;3.30;;;;;;;;;;5023490;28;20407;-52
2021/03/20 03:56:02;;;;;;;7.90;4.10;;;;;;;;;;5023293;28;20642;-52
2021/03/20 03:58:40;;;;;;;5.28;3.25;;;;;;;;;;5023549;28;20410;-52
2021/03/20 04:01:12;;;;;;;4.68;3.85;;;;;;;;;;5025855;28;20195;-52
2021/03/20 04:03:38;;;;;;;6.70;3.83;;;;;;;;;;5027661;28;20222;-53
2021/03/20 04:06:24;;;;;;;3.93;3.53;;;;;;;;;;5026872;28;20160;-54
2021/03/20 04:08:50;;;;;;;5.53;3.80;;;;;;;;;;5025911;28;20454;-54
2021/03/20 04:11:30;;;;;;;4.60;4.20;;;;;;;;;;5027160;28;20264;-53
2021/03/20 04:14:04;;;;;;;5.10;4.40;;;;;;;;;;5027243;28;20402;-53
2021/03/20 04:16:35;;;;;;;4.82;4.43;;;;;;;;;;5027463;28;20171;-54
2021/03/20 04:19:20;;;;;;;3.90;3.60;;;;;;;;;;5026881;28;20172;-54
2021/03/20 04:21:52;;;;;;;4.43;3.45;;;;;;;;;;5027407;28;20270;-53
2021/03/20 04:24:35;;;;;;;4.43;4.03;;;;;;;;;;5027739;28;20172;-53
2021/03/20 04:27:03;;;;;;;6.15;3.88;;;;;;;;;;5026707;28;20172;-54
2021/03/20 04:29:39;;;;;;;7.00;4.60;;;;;;;;;;5026369;28;20173;-52
2021/03/20 04:32:08;;;;;;;6.70;3.80;;;;;;;;;;5026172;28;20238;-53
2021/03/20 04:34:41;;;;;;;9.73;3.80;;;;;;;;;;5026265;28;20175;-53
2021/03/20 04:37:10;;;;;;;4.10;3.58;;;;;;;;;;5026991;28;20171;-53
2021/03/20 04:39:41;;;;;;;6.00;4.28;;;;;;;;;;5024719;28;20172;-52
2021/03/20 04:42:07;;;;;;;6.15;3.70;;;;;;;;;;5018549;28;20203;-52
2021/03/20 04:44:34;;;;;;;3.40;3.10;;;;;;;;;;5013328;28;20238;-53
2021/03/20 04:47:01;;;;;;;3.58;3.20;;;;;;;;;;5013367;28;20168;-52
2021/03/20 04:49:30;;;;;;;6.25;3.85;;;;;;;;;;5011686;28;20283;-52
2021/03/20 04:51:58;;;;;;;7.18;4.10;;;;;;;;;;5013120;28;20195;-53
2021/03/20 04:54:25;;;;;;;5.38;3.70;;;;;;;;;;5012262;28;20211;-54
2021/03/20 04:56:56;;;;;;;4.40;3.70;;;;;;;;;;5013180;28;20592;-51
2021/03/20 04:59:40;;;;;;;4.13;3.72;;;;;;;;;;5012874;28;20246;-51
2021/03/20 05:02:12;;;;;;;5.60;4.22;;;;;;;;;;5012904;28;20198;-52
2021/03/20 05:04:40;;;;;;;5.80;4.25;;;;;;;;;;5013057;28;20582;-53
2021/03/20 05:07:06;;;;;;;3.75;3.45;;;;;;;;;;5012814;28;20230;-51
2021/03/20 05:09:32;;;;;;;10.50;4.07;;;;;;;;;;5011725;28;20200;-51
2021/03/20 05:11:58;;;;;;;5.95;3.97;;;;;;;;;;5011710;28;20261;-52
2021/03/20 05:14:28;;;;;;;3.60;3.20;;;;;;;;;;5012882;28;20170;-52
2021/03/20 05:16:58;;;;;;;6.70;4.40;;;;;;;;;;5012738;28;20455;-51
2021/03/20 05:19:25;;;;;;;7.03;4.30;;;;;;;;;;5012483;28;20230;-52
2021/03/20 05:21:54;;;;;;;6.53;3.65;;;;;;;;;;5012545;28;20219;-51
2021/03/20 05:24:30;;;;;;;4.07;3.70;;;;;;;;;;5012712;28;20636;-51
2021/03/20 05:26:57;;;;;;;6.40;3.70;;;;;;;;;;5012604;28;20290;-52
2021/03/20 05:29:23;;;;;;;5.32;3.50;;;;;;;;;;5012330;28;20185;-53
2021/03/20 05:31:49;;;;;;;8.63;4.50;;;;;;;;;;5012305;28;20196;-51
2021/03/20 05:34:18;;;;;;;5.90;3.97;;;;;;;;;;5012415;28;20173;-51
2021/03/20 05:36:44;;;;;;;8.13;3.70;;;;;;;;;;5012387;28;20406;-53
2021/03/20 05:39:10;;;;;;;5.37;3.90;;;;;;;;;;5011264;28;20542;-53
2021/03/20 05:41:53;;;;;;;4.67;3.60;;;;;;;;;;5012177;28;20453;-51
2021/03/20 05:44:26;;;;;;;4.55;3.95;;;;;;;;;;5012179;28;20490;-52
2021/03/20 05:47:02;;;;;;;4.28;3.70;;;;;;;;;;5012346;28;20164;-52
2021/03/20 05:49:34;;;;;;;5.35;3.70;;;;;;;;;;5011863;28;20164;-52
2021/03/20 05:52:15;;;;;;;5.10;3.90;;;;;;;;;;5012196;28;20200;-51
2021/03/20 05:54:53;;;;;;;5.25;4.85;;;;;;;;;;5012108;28;20246;-54
2021/03/20 05:57:54;;;;;;;8.93;4.85;;;;;;;;;;5012072;28;20164;-53
2021/03/20 06:00:33;;;;;;;9.32;4.07;;;;;;;;;;4951048;29;20572;-52
2021/03/20 06:03:05;;;;;;;7.13;4.30;;;;;;;;;;5005135;28;20299;-52
2021/03/20 06:05:51;;;;;;;7.03;4.25;;;;;;;;;;5011884;28;20168;-52
2021/03/20 06:08:36;;;;;;;4.95;4.13;;;;;;;;;;5011719;28;20168;-53
2021/03/20 06:11:21;;;;;;;10.25;4.00;;;;;;;;;;5011249;28;20231;-51
2021/03/20 06:13:56;;;;;;;8.07;3.90;;;;;;;;;;5011767;28;20247;-52
2021/03/20 06:16:30;;;;;;;5.85;4.07;;;;;;;;;;5011699;28;20179;-53
2021/03/20 06:18:59;;;;;;;6.53;4.00;;;;;;;;;;5011494;28;20611;-51
2021/03/20 06:21:25;;;;;;;3.92;3.53;;;;;;;;;;5011634;28;20207;-51
2021/03/20 06:24:03;;;;;;;5.13;4.23;;;;;;;;;;5011577;28;20663;-51
2021/03/20 06:26:30;;;;;;;4.22;3.80;;;;;;;;;;5011689;28;20777;-51
2021/03/20 06:29:12;;;;;;;4.25;3.95;;;;;;;;;;5011446;28;20165;-52
2021/03/20 06:31:45;;;;;;;4.70;4.18;;;;;;;;;;5011568;28;20211;-51
2021/03/20 06:34:11;;;;;;;7.90;4.75;;;;;;;;;;5011608;28;20171;-51
2021/03/20 06:36:40;;;;;;;5.80;5.23;;;;;;;;;;5011742;28;20797;-51
2021/03/20 06:39:13;;;;;;;5.80;5.32;;;;;;;;;;5010296;28;20435;-53
2021/03/20 06:41:39;;;;;;;6.75;4.43;;;;;;;;;;5011311;28;20619;-52
2021/03/20 06:44:17;;;;;;;6.50;4.00;;;;;;;;;;5011569;28;20170;-52
2021/03/20 06:46:44;;;;;;;9.60;5.53;;;;;;;;;;5011294;28;20403;-54
2021/03/20 06:49:22;;;;;;;6.35;4.43;;;;;;;;;;5010883;28;20532;-52
2021/03/20 06:51:48;;;;;;;6.15;5.55;;;;;;;;;;5011033;28;20192;-52
2021/03/20 06:54:16;;;;;;;6.28;4.75;;;;;;;;;;5011076;28;20169;-52
2021/03/20 06:56:44;;;;;;;5.95;4.88;;;;;;;;;;5011165;28;20160;-52
2021/03/20 06:59:11;;;;;;;7.03;6.28;;;;;;;;;;5010798;28;20219;-52
2021/03/20 07:01:37;;;;;;;5.45;4.97;;;;;;;;;;5011021;28;20257;-54
2021/03/20 07:04:29;;;;;;;7.87;5.30;;;;;;;;;;5011309;28;20669;-52
2021/03/20 07:07:05;;;;;;;6.85;5.10;;;;;;;;;;4987594;28;20469;-52
2021/03/20 07:09:32;;;;;;;6.65;5.00;;;;;;;;;;5009295;28;20270;-53
2021/03/20 07:12:05;;;;;;;5.95;4.30;;;;;;;;;;5010146;28;20203;-54
2021/03/20 07:14:40;;;;;;;5.68;5.18;;;;;;;;;;5010260;28;20790;-52
2021/03/20 07:17:08;;;;;;;7.40;5.75;;;;;;;;;;5010348;28;20183;-53
2021/03/20 07:19:34;;;;;;;8.63;5.25;;;;;;;;;;5010115;28;20168;-52
2021/03/20 07:22:00;;;;;;;4.70;4.30;;;;;;;;;;5010036;28;20196;-52
2021/03/20 07:24:36;;;;;;;6.37;4.93;;;;;;;;;;5010041;28;20910;-52
2021/03/20 07:27:07;;;;;;;5.03;4.55;;;;;;;;;;5009957;28;20919;-52
2021/03/20 07:29:44;;;;;;;5.15;4.50;;;;;;;;;;5010099;28;20164;-52
2021/03/20 07:32:17;;;;;;;4.57;4.18;;;;;;;;;;5009908;28;20203;-52
2021/03/20 07:34:44;;;;;;;4.80;4.30;;;;;;;;;;5010484;28;20160;-53
2021/03/20 07:37:19;;;;;;;4.63;4.22;;;;;;;;;;5009777;28;20187;-53
2021/03/20 07:39:47;;;;;;;6.47;4.68;;;;;;;;;;5011637;28;20172;-53
2021/03/20 07:42:28;;;;;;;5.07;4.50;;;;;;;;;;5017806;28;20243;-51
2021/03/20 07:44:56;;;;;;;6.20;4.60;;;;;;;;;;5023238;28;20206;-51
2021/03/20 07:47:23;;;;;;;5.63;5.05;;;;;;;;;;5021122;28;20191;-52
2021/03/20 07:50:05;;;;;;;5.70;5.00;;;;;;;;;;5020646;28;20182;-52
2021/03/20 07:52:31;;;;;;;7.10;5.47;;;;;;;;;;5021134;28;20545;-54
2021/03/20 07:55:16;;;;;;;4.68;4.28;;;;;;;;;;5021169;28;20188;-53
2021/03/20 07:58:02;;;;;;;4.88;4.47;;;;;;;;;;5021601;28;20247;-52
2021/03/20 08:00:31;;;;;;;5.70;4.75;;;;;;;;;;5021720;28;20191;-53
2021/03/20 08:03:23;;;;;;;6.28;4.65;;;;;;;;;;5022704;28;20259;-52
2021/03/20 08:05:49;;;;;;;5.43;4.93;;;;;;;;;;5022287;28;20192;-53
2021/03/20 08:08:15;;;;;;;8.93;5.13;;;;;;;;;;5024986;28;20168;-53
2021/03/20 08:10:54;;;;;;;9.02;6.25;;;;;;;;;;5024954;28;20459;-51
2021/03/20 08:13:23;;;;;;;5.82;4.22;;;;;;;;;;5004605;28;20269;-52
2021/03/20 08:15:55;;;;;;;5.53;4.37;;;;;;;;;;5005066;28;20173;-53
2021/03/20 08:18:24;;;;;;;5.07;4.27;;;;;;;;;;5005824;28;20749;-53
2021/03/20 08:20:59;;;;;;;10.50;5.50;;;;;;;;;;5005768;28;20416;-53
2021/03/20 08:23:34;;;;;;;7.87;5.07;;;;;;;;;;5004447;28;20423;-52
2021/03/20 08:26:00;;;;;;;7.10;4.60;;;;;;;;;;5005496;28;20438;-54
2021/03/20 08:28:45;;;;;;;6.10;4.80;;;;;;;;;;5005692;28;20415;-52
2021/03/20 08:31:11;;;;;;;5.80;4.93;;;;;;;;;;5004837;28;20426;-53
2021/03/20 08:33:40;;;;;;;8.07;4.43;;;;;;;;;;5003396;28;20767;-53
2021/03/20 08:36:18;;;;;;;5.07;4.50;;;;;;;;;;5002377;28;20451;-55
2021/03/20 08:38:44;;;;;;;5.47;3.90;;;;;;;;;;5004634;28;20455;-53
2021/03/20 08:41:19;;;;;;;7.97;4.90;;;;;;;;;;5018834;28;20839;-53
2021/03/20 08:43:56;;;;;;;6.77;3.90;;;;;;;;;;5018482;28;20904;-54
2021/03/20 08:46:25;;;;;;;4.20;3.80;;;;;;;;;;5018798;28;20395;-54
2021/03/20 08:48:51;;;;;;;5.53;3.23;;;;;;;;;;5019194;28;20443;-53
2021/03/20 08:51:28;;;;;;;6.13;3.73;;;;;;;;;;5019751;28;20415;-54
2021/03/20 08:54:10;;;;;;;6.53;3.97;;;;;;;;;;5020347;28;20411;-53
2021/03/20 08:56:39;;;;;;;3.50;3.20;;;;;;;;;;5018590;28;20398;-53
2021/03/20 08:59:14;;;;;;;6.20;3.40;;;;;;;;;;5018316;28;20466;-54
2021/03/20 09:01:43;;;;;;;13.00;3.83;;;;;;;;;;5018885;28;20457;-54
2021/03/20 09:04:14;;;;;;;7.37;3.17;;;;;;;;;;5018434;28;20411;-54
2021/03/20 09:06:42;;;;;;;3.67;3.37;;;;;;;;;;5019237;28;20403;-53
2021/03/20 09:09:14;;;;;;;3.57;2.30;;;;;;;;;;5018328;28;20926;-53
2021/03/20 09:11:47;;;;;;;3.90;3.23;;;;;;;;;;5018050;28;20457;-53
2021/03/20 09:14:16;;;;;;;3.50;3.10;;;;;;;;;;5017625;28;20451;-52
2021/03/20 09:16:45;;;;;;;4.93;3.13;;;;;;;;;;5017279;28;20378;-54
2021/03/20 09:19:18;;;;;;;3.40;3.07;;;;;;;;;;5018105;28;20419;-52
2021/03/20 09:21:45;;;;;;;3.70;2.53;;;;;;;;;;5017838;28;20426;-53
2021/03/20 09:24:16;;;;;;;3.47;2.67;;;;;;;;;;5018562;28;20968;-54
2021/03/20 09:26:56;;;;;;;3.13;2.60;;;;;;;;;;5018858;28;20403;-53
2021/03/20 09:29:24;;;;;;;5.60;2.70;;;;;;;;;;5015829;28;20498;-53
2021/03/20 09:31:53;;;;;;;3.00;2.47;;;;;;;;;;5012550;28;20465;-53
2021/03/20 09:34:25;;;;;;;2.57;2.37;;;;;;;;;;5012591;28;20400;-53
2021/03/20 09:36:51;;;;;;;2.50;2.30;;;;;;;;;;5011149;28;20498;-53
2021/03/20 09:39:50;;;;;;;4.53;2.50;;;;;;;;;;5011275;28;20507;-53
2021/03/20 09:42:27;;;;;;;4.37;2.87;;;;;;;;;;4979119;28;20528;-53
2021/03/20 09:44:55;;;;;;;2.90;2.33;;;;;;;;;;5011010;28;20504;-53
2021/03/20 09:47:35;;;;;;;5.10;2.33;;;;;;;;;;5012089;28;20410;-53
2021/03/20 09:50:19;;;;;;;3.90;2.50;;;;;;;;;;5011761;28;20407;-53
2021/03/20 09:52:50;;;;;;;3.63;3.00;;;;;;;;;;5012077;28;20458;-53
2021/03/20 09:55:29;;;;;;;3.80;2.40;;;;;;;;;;5011129;28;20472;-53
2021/03/20 09:57:55;;;;;;;3.30;2.60;;;;;;;;;;5011430;28;20947;-53
2021/03/20 10:00:40;;;;;;;2.70;2.50;;;;;;;;;;5011701;28;20414;-53
2021/03/20 10:03:07;;;;;;;2.50;2.17;;;;;;;;;;5011986;28;20400;-53
2021/03/20 10:05:33;;;;;;;6.60;2.40;;;;;;;;;;5011673;28;20403;-53
2021/03/20 10:08:17;;;;;;;4.43;2.17;;;;;;;;;;5011665;28;20414;-53
2021/03/20 10:10:45;;;;;;;2.90;2.60;;;;;;;;;;5010902;28;20848;-54
2021/03/20 10:13:14;;;;;;;3.73;2.47;;;;;;;;;;5011690;28;20519;-53
2021/03/20 10:15:52;;;;;;;3.60;2.60;;;;;;;;;;5011848;28;20778;-53
2021/03/20 10:18:20;;;;;;;3.73;2.83;;;;;;;;;;5011693;28;20369;-53
2021/03/20 10:21:06;;;;;;;2.30;2.20;;;;;;;;;;5011899;28;20401;-53
2021/03/20 10:24:02;;;;;;;3.60;2.70;;;;;;;;;;5011750;28;20412;-53
2021/03/20 10:26:31;;;;;;;2.63;2.43;;;;;;;;;;4998821;28;20415;-53
2021/03/20 10:28:59;;;;;;;2.97;2.70;;;;;;;;;;5010172;28;20462;-53
2021/03/20 10:31:26;;;;;;;3.17;2.00;;;;;;;;;;5011606;28;20462;-53
2021/03/20 10:34:21;;;;;;;2.97;2.77;;;;;;;;;;5011492;28;20801;-53
2021/03/20 10:36:48;;;;;;;2.50;2.30;;;;;;;;;;4998848;28;20422;-53
2021/03/20 10:39:26;;;;;;;6.30;2.80;;;;;;;;;;5010280;28;20433;-53
2021/03/20 10:41:53;;;;;;;4.20;2.90;;;;;;;;;;5016451;28;20467;-54
2021/03/20 10:44:25;;;;;;;2.37;2.13;;;;;;;;;;5022378;28;20411;-52
2021/03/20 10:47:00;;;;;;;2.50;2.30;;;;;;;;;;5022373;28;20406;-53
2021/03/20 10:49:26;;;;;;;3.40;2.70;;;;;;;;;;5021460;28;20411;-53
2021/03/20 10:51:57;;;;;;;2.47;2.27;;;;;;;;;;5021139;28;20463;-53
2021/03/20 10:54:25;;;;;;;3.83;2.27;;;;;;;;;;5021144;28;20410;-53
2021/03/20 10:56:53;;;;;;;2.67;2.47;;;;;;;;;;5021295;28;20429;-53
2021/03/20 10:59:29;;;;;;;2.83;2.63;;;;;;;;;;5019595;28;20420;-53
2021/03/20 11:01:55;;;;;;;2.67;2.43;;;;;;;;;;5020892;28;20445;-51
2021/03/20 11:04:27;;;;;;;3.47;2.50;;;;;;;;;;5021978;28;20407;-51
2021/03/20 11:06:54;;;;;;;3.90;2.43;;;;;;;;;;5021879;28;20453;-53
2021/03/20 11:09:23;;;;;;;2.40;2.20;;;;;;;;;;5019140;28;20435;-52
2021/03/20 11:11:50;;;;;;;2.30;2.03;;;;;;;;;;5020780;28;20465;-52
2021/03/20 11:14:18;;;;;;;4.30;2.57;;;;;;;;;;5020109;28;20901;-53
2021/03/20 11:16:46;;;;;;;3.20;2.50;;;;;;;;;;5018344;28;21143;-53
2021/03/20 11:19:12;;;;;;;4.13;3.17;;;;;;;;;;5018004;28;20430;-54
2021/03/20 11:21:39;;;;;;;2.93;2.67;;;;;;;;;;5019032;28;20405;-53
2021/03/20 11:24:06;;;;;;;4.83;2.90;;;;;;;;;;5018864;28;20378;-53
2021/03/20 11:26:34;;;;;;;3.60;2.30;;;;;;;;;;5018086;28;20416;-53
2021/03/20 11:29:00;;;;;;;4.50;2.80;;;;;;;;;;5018235;28;20442;-53
2021/03/20 11:31:27;;;;;;;3.10;2.50;;;;;;;;;;5017370;28;20399;-53
2021/03/20 11:33:53;;;;;;;2.87;2.67;;;;;;;;;;5016892;28;20373;-55
2021/03/20 11:36:22;;;;;;;2.70;2.50;;;;;;;;;;5016912;28;20426;-53
2021/03/20 11:38:49;;;;;;;2.70;2.50;;;;;;;;;;5015709;28;20418;-53
2021/03/20 11:41:17;;;;;;;3.93;3.17;;;;;;;;;;5015068;28;20454;-53
2021/03/20 11:43:45;;;;;;;3.40;3.10;;;;;;;;;;5015614;28;20405;-53
2021/03/20 11:46:13;;;;;;;3.23;2.93;;;;;;;;;;5014647;28;20411;-53
2021/03/20 11:48:43;;;;;;;3.10;2.87;;;;;;;;;;5016375;28;20461;-53
2021/03/20 11:51:16;;;;;;;3.17;2.87;;;;;;;;;;5016575;28;20423;-54
2021/03/20 11:53:43;;;;;;;3.73;3.17;;;;;;;;;;5015714;28;20418;-54
2021/03/20 11:56:27;;;;;;;4.50;3.37;;;;;;;;;;5014990;28;20439;-53
2021/03/20 11:58:55;;;;;;;11.10;3.13;;;;;;;;;;5013776;28;20415;-54
2021/03/20 12:01:30;;;;;;;5.73;3.23;;;;;;;;;;5014976;28;20434;-54
2021/03/20 12:03:59;;;;;;;3.00;2.80;;;;;;;;;;5014702;28;20505;-53
2021/03/20 12:06:28;;;;;;;3.50;3.20;;;;;;;;;;5013619;28;20992;-54
2021/03/20 12:08:55;;;;;;;2.90;2.43;;;;;;;;;;5013448;28;20415;-53
2021/03/20 12:11:41;;;;;;;2.17;1.93;;;;;;;;;;5013993;28;20443;-54
2021/03/20 12:14:27;;;;;;;2.30;2.20;;;;;;;;;;5015168;28;20467;-53
2021/03/20 12:17:01;;;;;;;5.07;2.43;;;;;;;;;;5015658;28;20399;-54
2021/03/20 12:19:27;;;;;;;3.40;3.10;;;;;;;;;;5012590;28;20500;-53
2021/03/20 12:21:53;;;;;;;3.30;3.00;;;;;;;;;;5015849;28;20431;-53
2021/03/20 12:24:25;;;;;;;2.63;2.40;;;;;;;;;;5018454;28;20426;-54
2021/03/20 12:26:51;;;;;;;3.63;2.40;;;;;;;;;;5018761;28;20394;-53
2021/03/20 12:29:23;;;;;;;3.40;3.10;;;;;;;;;;5018723;28;20828;-53
2021/03/20 12:31:49;;;;;;;3.20;2.30;;;;;;;;;;5017987;28;20455;-52
2021/03/20 12:34:15;;;;;;;2.63;2.43;;;;;;;;;;5018967;28;20403;-53
2021/03/20 12:36:47;;;;;;;2.80;2.60;;;;;;;;;;5016919;28;20756;-53
2021/03/20 12:39:24;;;;;;;3.40;2.73;;;;;;;;;;5017838;28;20494;-53
2021/03/20 12:41:51;;;;;;;2.67;2.47;;;;;;;;;;5031815;28;20446;-54
2021/03/20 12:44:17;;;;;;;3.60;2.30;;;;;;;;;;5017371;28;20443;-55
2021/03/20 12:46:45;;;;;;;3.30;2.40;;;;;;;;;;5017935;28;20414;-53
2021/03/20 12:49:15;;;;;;;2.77;2.57;;;;;;;;;;5018688;28;20465;-52
2021/03/20 12:51:41;;;;;;;2.70;2.37;;;;;;;;;;5018229;28;20447;-54
2021/03/20 12:54:07;;;;;;;3.17;2.70;;;;;;;;;;5013732;28;21105;-54
2021/03/20 12:56:33;;;;;;;3.30;2.77;;;;;;;;;;5019446;28;20366;-55
2021/03/20 12:58:59;;;;;;;2.57;2.37;;;;;;;;;;5019990;28;20446;-53
2021/03/20 13:01:25;;;;;;;4.37;2.27;;;;;;;;;;5019082;28;20442;-53
2021/03/20 13:03:51;;;;;;;2.57;2.37;;;;;;;;;;5018344;28;20381;-54
2021/03/20 13:06:17;;;;;;;2.30;2.10;;;;;;;;;;5018899;28;20461;-54
2021/03/20 13:08:43;;;;;;;2.77;2.50;;;;;;;;;;5019193;28;20865;-54
2021/03/20 13:11:19;;;;;;;3.70;2.93;;;;;;;;;;5017212;28;20483;-53
2021/03/20 13:13:45;;;;;;;2.20;2.00;;;;;;;;;;5017782;28;20418;-53
2021/03/20 13:16:11;;;;;;;4.40;2.33;;;;;;;;;;5017980;28;20410;-54
2021/03/20 13:18:37;;;;;;;5.43;2.97;;;;;;;;;;5017213;28;20399;-53
2021/03/20 13:21:03;;;;;;;3.97;2.10;;;;;;;;;;5018102;28;20390;-52
2021/03/20 13:23:29;;;;;;;2.97;2.10;;;;;;;;;;5018292;28;20381;-53
2021/03/20 13:25:55;;;;;;;4.80;2.67;;;;;;;;;;5021938;28;20396;-51
2021/03/20 13:28:21;;;;;;;2.57;2.30;;;;;;;;;;5022797;28;20546;-52
2021/03/20 13:30:48;;;;;;;2.00;1.90;;;;;;;;;;5022152;28;20394;-54
2021/03/20 13:33:14;;;;;;;4.30;2.30;;;;;;;;;;5020974;28;20989;-54
2021/03/20 13:35:41;;;;;;;2.90;2.50;;;;;;;;;;5022765;28;20426;-52
2021/03/20 13:38:08;;;;;;;1.83;1.73;;;;;;;;;;5020668;28;20895;-55
2021/03/20 13:40:34;;;;;;;2.63;2.10;;;;;;;;;;5019685;28;20417;-53
2021/03/20 13:43:00;;;;;;;2.40;2.13;;;;;;;;;;5020903;28;20434;-55
2021/03/20 13:45:27;;;;;;;4.07;2.40;;;;;;;;;;5022193;28;20403;-52
2021/03/20 13:47:54;;;;;;;2.07;1.87;;;;;;;;;;5023089;28;20411;-54
2021/03/20 13:50:21;;;;;;;3.80;1.90;;;;;;;;;;5022898;28;21190;-53
2021/03/20 13:52:47;;;;;;;3.10;1.90;;;;;;;;;;5021844;28;20458;-53
2021/03/20 13:55:13;;;;;;;2.90;2.33;;;;;;;;;;5022971;28;20490;-52
2021/03/20 13:57:39;;;;;;;2.77;2.30;;;;;;;;;;5022596;28;20417;-53
2021/03/20 14:00:06;;;;;;;2.83;1.77;;;;;;;;;;5021236;28;20411;-52
2021/03/20 14:02:32;;;;;;;2.80;2.07;;;;;;;;;;5020186;28;20469;-54
2021/03/20 14:04:58;;;;;;;2.37;2.17;;;;;;;;;;5019834;28;20405;-54
2021/03/20 14:07:38;;;;;;;3.60;2.60;;;;;;;;;;5019889;28;20418;-54
2021/03/20 14:10:08;;;;;;;3.33;2.20;;;;;;;;;;5018730;28;20417;-53
2021/03/20 14:12:34;;;;;;;4.37;2.50;;;;;;;;;;5019570;28;20454;-53
2021/03/20 14:15:00;;;;;;;2.60;2.40;;;;;;;;;;5020171;28;20422;-54
2021/03/20 14:17:26;;;;;;;3.00;2.80;;;;;;;;;;5021177;28;20422;-52
2021/03/20 14:19:53;;;;;;;2.87;2.50;;;;;;;;;;5019234;28;20409;-53
2021/03/20 14:22:19;;;;;;;2.40;2.30;;;;;;;;;;5017456;28;20450;-52
2021/03/20 14:24:45;;;;;;;4.43;2.80;;;;;;;;;;5019387;28;20445;-54
2021/03/20 14:27:11;;;;;;;2.70;2.20;;;;;;;;;;5018455;28;20411;-52
2021/03/20 14:29:38;;;;;;;3.20;2.90;;;;;;;;;;5018436;28;21130;-51
2021/03/20 14:32:04;;;;;;;6.53;2.60;;;;;;;;;;5016544;28;20473;-50
2021/03/20 14:34:30;;;;;;;4.70;2.73;;;;;;;;;;5017396;28;20414;-53
2021/03/20 14:36:56;;;;;;;3.03;2.30;;;;;;;;;;5018852;28;20408;-53
2021/03/20 14:39:22;;;;;;;3.53;2.67;;;;;;;;;;5018441;28;20411;-53
2021/03/20 14:41:48;;;;;;;3.67;2.47;;;;;;;;;;5017259;28;20474;-52
2021/03/20 14:44:15;;;;;;;2.90;2.70;;;;;;;;;;5018345;28;20406;-51
2021/03/20 14:46:42;;;;;;;3.43;2.80;;;;;;;;;;5018013;28;20407;-52
2021/03/20 14:49:08;;;;;;;3.87;2.80;;;;;;;;;;5017557;28;20446;-51
2021/03/20 14:51:34;;;;;;;3.20;2.90;;;;;;;;;;5017539;28;20427;-52
2021/03/20 14:54:00;;;;;;;4.13;2.83;;;;;;;;;;5018500;28;20403;-52
2021/03/20 14:56:26;;;;;;;3.20;2.80;;;;;;;;;;5017939;28;21043;-52
2021/03/20 14:58:52;;;;;;;3.50;3.00;;;;;;;;;;5017532;28;20399;-51
2021/03/20 15:01:18;;;;;;;7.93;3.10;;;;;;;;;;5017572;28;20428;-52
2021/03/20 15:03:44;;;;;;;2.97;2.77;;;;;;;;;;5018459;28;20403;-53
2021/03/20 15:06:10;;;;;;;3.97;2.87;;;;;;;;;;5019195;28;20399;-54